Time,TemperatureF,DewpointF,PressureIn,WindDirection,WindDirectionDegrees,WindSpeedMPH,WindSpeedGustMPH,Humidity,HourlyPrecipIn,Conditions,Clouds,dailyrainin,SoftwareType,DateUTC
2013-02-24 00:01:00,14.0,12.0,30.09,North,-999,0.0,-999.0,90,-99.99,,,-99.99,,2013-02-24 06:01:00,
2013-02-24 00:11:00,14.0,12.0,30.09,North,-999,0.0,-999.0,90,-99.99,,,-99.99,,2013-02-24 06:11:00,
2013-02-24 00:21:00,14.0,11.0,30.09,North,-999,0.0,-999.0,89,-99.99,,,-99.99,,2013-02-24 06:21:00,
2013-02-24 00:31:00,14.0,11.0,30.08,North,-999,0.0,-999.0,89,-99.99,,,-99.99,,2013-02-24 06:31:00,
2013-02-24 00:42:00,14.0,11.0,30.08,North,-999,0.0,-999.0,89,-99.99,,,-99.99,,2013-02-24 06:42:00,
2013-02-24 00:52:00,14.0,11.0,30.08,North,-999,0.0,-999.0,89,-99.99,,,-99.99,,2013-02-24 06:52:00,
2013-02-24 01:01:00,13.0,10.0,30.09,North,-999,0.0,-999.0,88,-99.99,,,-99.99,,2013-02-24 07:01:00,
2013-02-24 01:12:00,13.0,10.0,30.09,North,-999,0.0,-999.0,88,-99.99,,,-99.99,,2013-02-24 07:12:00,
2013-02-24 01:21:00,12.0,9.0,30.10,North,-999,0.0,-999.0,88,-99.99,,,-99.99,,2013-02-24 07:21:00,
2013-02-24 01:31:00,12.0,9.0,30.10,North,-999,0.0,-999.0,88,-99.99,,,-99.99,,2013-02-24 07:31:00,
2013-02-24 01:42:00,12.0,9.0,30.10,North,-999,0.0,-999.0,88,-99.99,,,-99.99,,2013-02-24 07:42:00,
2013-02-24 01:52:00,11.0,8.0,30.11,North,-999,0.0,-999.0,87,-99.99,,,-99.99,,2013-02-24 07:52:00,
2013-02-24 02:01:00,11.0,8.0,30.11,North,-999,0.0,-999.0,88,-99.99,,,-99.99,,2013-02-24 08:01:00,
2013-02-24 02:11:00,11.0,8.0,30.11,North,-999,0.0,-999.0,88,-99.99,,,-99.99,,2013-02-24 08:11:00,
2013-02-24 02:22:00,10.0,7.0,30.11,North,-999,0.0,-999.0,87,-99.99,,,-99.99,,2013-02-24 08:22:00,
2013-02-24 02:31:00,10.0,7.0,30.11,North,-999,0.0,-999.0,87,-99.99,,,-99.99,,2013-02-24 08:31:00,
2013-02-24 02:42:00,10.0,7.0,30.11,North,-999,0.0,-999.0,87,-99.99,,,-99.99,,2013-02-24 08:42:00,
2013-02-24 02:53:00,9.0,6.0,30.12,North,-999,0.0,-999.0,86,-99.99,,,-99.99,,2013-02-24 08:53:00,
2013-02-24 03:01:00,8.0,5.0,30.13,North,-999,0.0,-999.0,86,-99.99,,,-99.99,,2013-02-24 09:01:00,
2013-02-24 03:11:00,8.0,5.0,30.13,North,-999,0.0,-999.0,86,-99.99,,,-99.99,,2013-02-24 09:11:00,
2013-02-24 03:21:00,8.0,5.0,30.12,North,-999,0.0,-999.0,87,-99.99,,,-99.99,,2013-02-24 09:21:00,
2013-02-24 03:31:00,7.0,4.0,30.12,North,-999,0.0,-999.0,87,-99.99,,,-99.99,,2013-02-24 09:31:00,
2013-02-24 03:41:00,7.0,4.0,30.12,North,-999,0.0,-999.0,87,-99.99,,,-99.99,,2013-02-24 09:41:00,
2013-02-24 03:52:00,7.0,4.0,30.13,North,-999,0.0,-999.0,86,-99.99,,,-99.99,,2013-02-24 09:52:00,
2013-02-24 04:01:00,6.0,3.0,30.13,North,-999,0.0,-999.0,86,-99.99,,,-99.99,,2013-02-24 10:01:00,
2013-02-24 04:11:00,6.0,3.0,30.13,North,-999,0.0,-999.0,86,-99.99,,,-99.99,,2013-02-24 10:11:00,
2013-02-24 04:21:00,6.0,3.0,30.12,North,-999,0.0,-999.0,86,-99.99,,,-99.99,,2013-02-24 10:21:00,
2013-02-24 04:31:00,6.0,3.0,30.13,North,-999,0.0,-999.0,86,-99.99,,,-99.99,,2013-02-24 10:31:00,
2013-02-24 04:41:00,6.0,3.0,30.13,North,-999,0.0,-999.0,86,-99.99,,,-99.99,,2013-02-24 10:41:00,
2013-02-24 04:52:00,5.0,2.0,30.13,North,-999,0.0,-999.0,86,-99.99,,,-99.99,,2013-02-24 10:52:00,
2013-02-24 05:01:00,5.0,2.0,30.14,North,-999,0.0,-999.0,86,-99.99,,,-99.99,,2013-02-24 11:01:00,
2013-02-24 05:11:00,5.0,2.0,30.14,North,-999,0.0,-999.0,86,-99.99,,,-99.99,,2013-02-24 11:11:00,
2013-02-24 05:21:00,5.0,2.0,30.14,North,-999,0.0,-999.0,86,-99.99,,,-99.99,,2013-02-24 11:21:00,
2013-02-24 05:32:00,5.0,2.0,30.14,North,-999,0.0,-999.0,87,-99.99,,,-99.99,,2013-02-24 11:32:00,
2013-02-24 05:41:00,5.0,2.0,30.14,North,-999,0.0,-999.0,87,-99.99,,,-99.99,,2013-02-24 11:41:00,
2013-02-24 05:53:00,5.0,2.0,30.14,North,-999,0.0,-999.0,87,-99.99,,,-99.99,,2013-02-24 11:53:00,
2013-02-24 06:01:00,4.0,1.0,30.14,North,-999,0.0,-999.0,86,-99.99,,,-99.99,,2013-02-24 12:01:00,
2013-02-24 06:11:00,4.0,1.0,30.14,North,-999,0.0,-999.0,86,-99.99,,,-99.99,,2013-02-24 12:11:00,
2013-02-24 06:21:00,4.0,1.0,30.15,North,-999,0.0,-999.0,87,-99.99,,,-99.99,,2013-02-24 12:21:00,
2013-02-24 06:32:00,4.0,1.0,30.15,North,-999,0.0,-999.0,86,-99.99,,,-99.99,,2013-02-24 12:32:00,
2013-02-24 06:46:00,4.0,1.0,30.15,North,-999,0.0,-999.0,86,-99.99,,,-99.99,,2013-02-24 12:46:00,
2013-02-24 06:56:00,4.0,1.0,30.16,North,-999,0.0,-999.0,86,-99.99,,,-99.99,,2013-02-24 12:56:00,
2013-02-24 07:09:00,4.0,1.0,30.16,North,-999,0.0,-999.0,85,-99.99,,,-99.99,,2013-02-24 13:09:00,
2013-02-24 07:16:00,4.0,1.0,30.16,North,-999,0.0,-999.0,85,-99.99,,,-99.99,,2013-02-24 13:16:00,
2013-02-24 07:26:00,4.0,1.0,30.16,North,-999,0.0,-999.0,86,-99.99,,,-99.99,,2013-02-24 13:26:00,
2013-02-24 07:33:00,4.0,1.0,30.17,North,-999,0.0,-999.0,86,-99.99,,,-99.99,,2013-02-24 13:33:00,
2013-02-24 07:44:00,4.0,1.0,30.17,North,-999,0.0,-999.0,86,-99.99,,,-99.99,,2013-02-24 13:44:00,
2013-02-24 07:55:00,4.0,1.0,30.18,North,-999,0.0,-999.0,86,-99.99,,,-99.99,,2013-02-24 13:55:00,
2013-02-24 08:03:00,4.0,1.0,30.18,North,-999,0.0,-999.0,87,-99.99,,,-99.99,,2013-02-24 14:03:00,
2013-02-24 08:13:00,4.0,1.0,30.18,North,-999,0.0,-999.0,87,-99.99,,,-99.99,,2013-02-24 14:13:00,
2013-02-24 08:24:00,5.0,2.0,30.18,North,-999,0.0,-999.0,88,-99.99,,,-99.99,,2013-02-24 14:24:00,
2013-02-24 08:33:00,7.0,4.0,30.18,North,-999,0.0,-999.0,89,-99.99,,,-99.99,,2013-02-24 14:33:00,
2013-02-24 08:44:00,7.0,4.0,30.18,North,-999,0.0,-999.0,89,-99.99,,,-99.99,,2013-02-24 14:44:00,
2013-02-24 08:54:00,8.0,5.0,30.18,North,-999,0.0,-999.0,89,-99.99,,,-99.99,,2013-02-24 14:54:00,
2013-02-24 09:02:00,9.0,6.0,30.19,North,-999,0.0,-999.0,88,-99.99,,,-99.99,,2013-02-24 15:02:00,
2013-02-24 09:13:00,9.0,6.0,30.19,North,-999,0.0,-999.0,88,-99.99,,,-99.99,,2013-02-24 15:13:00,
2013-02-24 09:23:00,11.0,8.0,30.19,North,-999,0.0,-999.0,88,-99.99,,,-99.99,,2013-02-24 15:23:00,
2013-02-24 09:32:00,12.0,9.0,30.20,North,-999,0.0,-999.0,87,-99.99,,,-99.99,,2013-02-24 15:32:00,
2013-02-24 09:42:00,12.0,9.0,30.20,North,-999,0.0,-999.0,87,-99.99,,,-99.99,,2013-02-24 15:42:00,
2013-02-24 09:53:00,14.0,11.0,30.20,North,-999,0.0,-999.0,87,-99.99,,,-99.99,,2013-02-24 15:53:00,
2013-02-24 10:01:00,15.0,12.0,30.21,North,-999,0.0,-999.0,86,-99.99,,,-99.99,,2013-02-24 16:01:00,
2013-02-24 10:11:00,15.0,12.0,30.21,North,-999,0.0,-999.0,86,-99.99,,,-99.99,,2013-02-24 16:11:00,
2013-02-24 10:21:00,16.0,13.0,30.21,North,-999,0.0,-999.0,86,-99.99,,,-99.99,,2013-02-24 16:21:00,
2013-02-24 10:32:00,18.0,14.0,30.22,North,-999,0.0,-999.0,84,-99.99,,,-99.99,,2013-02-24 16:32:00,
2013-02-24 10:41:00,18.0,14.0,30.22,North,-999,0.0,-999.0,84,-99.99,,,-99.99,,2013-02-24 16:41:00,
2013-02-24 10:52:00,21.0,16.0,30.21,North,-999,0.0,-999.0,81,-99.99,,,-99.99,,2013-02-24 16:52:00,
2013-02-24 11:01:00,24.0,17.0,30.22,North,-999,0.0,-999.0,75,-99.99,,,-99.99,,2013-02-24 17:01:00,
2013-02-24 11:21:00,26.0,17.0,30.22,North,-999,0.0,-999.0,69,-99.99,,,-99.99,,2013-02-24 17:21:00,
2013-02-24 11:41:00,26.0,17.0,30.22,North,-999,0.0,-999.0,69,-99.99,,,-99.99,,2013-02-24 17:41:00,
2013-02-24 11:52:00,26.0,17.0,30.22,North,-999,0.0,-999.0,69,-99.99,,,-99.99,,2013-02-24 17:52:00,
2013-02-24 12:01:00,30.0,20.0,30.23,North,-999,0.0,-999.0,66,-99.99,,,-99.99,,2013-02-24 18:01:00,
2013-02-24 12:22:00,30.0,19.0,30.22,North,-999,0.0,-999.0,62,-99.99,,,-99.99,,2013-02-24 18:22:00,
2013-02-24 12:32:00,30.0,19.0,30.22,North,-999,0.0,-999.0,64,-99.99,,,-99.99,,2013-02-24 18:32:00,
2013-02-24 12:42:00,30.0,19.0,30.22,North,-999,0.0,-999.0,64,-99.99,,,-99.99,,2013-02-24 18:42:00,
2013-02-24 12:52:00,30.0,20.0,30.22,North,-999,0.0,-999.0,65,-99.99,,,-99.99,,2013-02-24 18:52:00,
2013-02-24 13:01:00,30.0,20.0,30.22,North,-999,0.0,-999.0,66,-99.99,,,-99.99,,2013-02-24 19:01:00,
2013-02-24 13:11:00,30.0,20.0,30.22,North,-999,0.0,-999.0,66,-99.99,,,-99.99,,2013-02-24 19:11:00,
2013-02-24 13:22:00,31.0,22.0,30.22,North,-999,0.0,-999.0,68,-99.99,,,-99.99,,2013-02-24 19:22:00,
2013-02-24 13:32:00,34.0,22.0,30.21,North,-999,0.0,-999.0,62,-99.99,,,-99.99,,2013-02-24 19:32:00,
2013-02-24 13:42:00,34.0,22.0,30.21,North,-999,0.0,-999.0,62,-99.99,,,-99.99,,2013-02-24 19:42:00,
2013-02-24 13:52:00,33.0,21.0,30.21,North,-999,0.0,-999.0,61,-99.99,,,-99.99,,2013-02-24 19:52:00,
2013-02-24 14:02:00,33.0,21.0,30.21,North,-999,0.0,-999.0,62,-99.99,,,-99.99,,2013-02-24 20:02:00,
2013-02-24 14:11:00,33.0,21.0,30.21,North,-999,0.0,-999.0,62,-99.99,,,-99.99,,2013-02-24 20:11:00,
2013-02-24 14:21:00,33.0,21.0,30.21,North,-999,0.0,-999.0,62,-99.99,,,-99.99,,2013-02-24 20:21:00,
2013-02-24 14:31:00,34.0,22.0,30.20,North,-999,0.0,-999.0,62,-99.99,,,-99.99,,2013-02-24 20:31:00,
2013-02-24 14:41:00,34.0,22.0,30.20,North,-999,0.0,-999.0,62,-99.99,,,-99.99,,2013-02-24 20:41:00,
2013-02-24 14:52:00,35.0,23.0,30.20,North,-999,0.0,-999.0,60,-99.99,,,-99.99,,2013-02-24 20:52:00,
2013-02-24 15:01:00,37.0,23.0,30.20,North,-999,0.0,-999.0,57,-99.99,,,-99.99,,2013-02-24 21:01:00,
2013-02-24 15:11:00,37.0,23.0,30.20,North,-999,0.0,-999.0,57,-99.99,,,-99.99,,2013-02-24 21:11:00,
2013-02-24 15:21:00,37.0,23.0,30.20,North,-999,0.0,-999.0,57,-99.99,,,-99.99,,2013-02-24 21:21:00,
2013-02-24 15:32:00,37.0,22.0,30.20,North,-999,0.0,-999.0,55,-99.99,,,-99.99,,2013-02-24 21:32:00,
2013-02-24 15:42:00,37.0,22.0,30.20,North,-999,0.0,-999.0,55,-99.99,,,-99.99,,2013-02-24 21:42:00,
2013-02-24 15:52:00,37.0,22.0,30.20,North,-999,0.0,-999.0,55,-99.99,,,-99.99,,2013-02-24 21:52:00,
2013-02-24 16:01:00,35.0,21.0,30.19,North,-999,0.0,-999.0,57,-99.99,,,-99.99,,2013-02-24 22:01:00,
2013-02-24 16:11:00,35.0,21.0,30.19,North,-999,0.0,-999.0,57,-99.99,,,-99.99,,2013-02-24 22:11:00,
2013-02-24 16:21:00,36.0,23.0,30.19,North,-999,0.0,-999.0,58,-99.99,,,-99.99,,2013-02-24 22:21:00,
2013-02-24 16:31:00,37.0,23.0,30.19,North,-999,0.0,-999.0,56,-99.99,,,-99.99,,2013-02-24 22:31:00,
2013-02-24 16:41:00,37.0,23.0,30.19,North,-999,0.0,-999.0,56,-99.99,,,-99.99,,2013-02-24 22:41:00,
2013-02-24 16:52:00,38.0,23.0,30.19,North,-999,0.0,-999.0,54,-99.99,,,-99.99,,2013-02-24 22:52:00,
2013-02-24 17:02:00,38.0,23.0,30.19,North,-999,0.0,-999.0,54,-99.99,,,-99.99,,2013-02-24 23:02:00,
2013-02-24 17:11:00,38.0,23.0,30.19,North,-999,0.0,-999.0,54,-99.99,,,-99.99,,2013-02-24 23:11:00,
2013-02-24 17:21:00,35.0,22.0,30.19,North,-999,0.0,-999.0,58,-99.99,,,-99.99,,2013-02-24 23:21:00,
2013-02-24 17:31:00,33.0,20.0,30.19,North,-999,0.0,-999.0,59,-99.99,,,-99.99,,2013-02-24 23:31:00,
2013-02-24 17:41:00,33.0,20.0,30.19,North,-999,0.0,-999.0,59,-99.99,,,-99.99,,2013-02-24 23:41:00,
2013-02-24 17:52:00,33.0,21.0,30.19,North,-999,0.0,-999.0,60,-99.99,,,-99.99,,2013-02-24 23:52:00,
2013-02-24 18:01:00,31.0,20.0,30.19,North,-999,0.0,-999.0,63,-99.99,,,-99.99,,2013-02-25 00:01:00,
2013-02-24 18:11:00,31.0,20.0,30.19,North,-999,0.0,-999.0,63,-99.99,,,-99.99,,2013-02-25 00:11:00,
2013-02-24 18:21:00,29.0,19.0,30.20,North,-999,0.0,-999.0,65,-99.99,,,-99.99,,2013-02-25 00:21:00,
2013-02-24 18:31:00,29.0,19.0,30.19,North,-999,0.0,-999.0,67,-99.99,,,-99.99,,2013-02-25 00:31:00,
2013-02-24 18:42:00,29.0,19.0,30.19,North,-999,0.0,-999.0,67,-99.99,,,-99.99,,2013-02-25 00:42:00,
2013-02-24 18:52:00,28.0,19.0,30.20,North,-999,0.0,-999.0,69,-99.99,,,-99.99,,2013-02-25 00:52:00,
2013-02-24 19:01:00,27.0,19.0,30.21,North,-999,0.0,-999.0,71,-99.99,,,-99.99,,2013-02-25 01:01:00,
2013-02-24 19:11:00,27.0,19.0,30.21,North,-999,0.0,-999.0,71,-99.99,,,-99.99,,2013-02-25 01:11:00,
2013-02-24 19:21:00,26.0,19.0,30.22,North,-999,0.0,-999.0,73,-99.99,,,-99.99,,2013-02-25 01:21:00,
2013-02-24 19:31:00,25.0,18.0,30.22,North,-999,0.0,-999.0,74,-99.99,,,-99.99,,2013-02-25 01:31:00,
2013-02-24 19:42:00,25.0,18.0,30.22,North,-999,0.0,-999.0,74,-99.99,,,-99.99,,2013-02-25 01:42:00,
2013-02-24 19:52:00,24.0,18.0,30.22,North,-999,0.0,-999.0,76,-99.99,,,-99.99,,2013-02-25 01:52:00,
2013-02-24 20:01:00,24.0,18.0,30.22,North,-999,0.0,-999.0,77,-99.99,,,-99.99,,2013-02-25 02:01:00,
2013-02-24 20:11:00,24.0,18.0,30.22,North,-999,0.0,-999.0,77,-99.99,,,-99.99,,2013-02-25 02:11:00,
2013-02-24 20:21:00,23.0,17.0,30.22,North,-999,0.0,-999.0,78,-99.99,,,-99.99,,2013-02-25 02:21:00,
2013-02-24 20:31:00,22.0,16.0,30.21,North,-999,0.0,-999.0,78,-99.99,,,-99.99,,2013-02-25 02:31:00,
2013-02-24 20:41:00,22.0,16.0,30.21,North,-999,0.0,-999.0,78,-99.99,,,-99.99,,2013-02-25 02:41:00,
2013-02-24 20:52:00,22.0,17.0,30.22,North,-999,0.0,-999.0,80,-99.99,,,-99.99,,2013-02-25 02:52:00,
2013-02-24 21:01:00,21.0,16.0,30.22,North,-999,0.0,-999.0,80,-99.99,,,-99.99,,2013-02-25 03:01:00,
2013-02-24 21:11:00,21.0,16.0,30.22,North,-999,0.0,-999.0,80,-99.99,,,-99.99,,2013-02-25 03:11:00,
2013-02-24 21:21:00,21.0,16.0,30.22,North,-999,0.0,-999.0,81,-99.99,,,-99.99,,2013-02-25 03:21:00,
2013-02-24 21:31:00,20.0,15.0,30.22,North,-999,0.0,-999.0,82,-99.99,,,-99.99,,2013-02-25 03:31:00,
2013-02-24 21:41:00,20.0,15.0,30.22,North,-999,0.0,-999.0,82,-99.99,,,-99.99,,2013-02-25 03:41:00,
2013-02-24 21:52:00,20.0,15.0,30.22,North,-999,0.0,-999.0,82,-99.99,,,-99.99,,2013-02-25 03:52:00,
2013-02-24 22:01:00,20.0,16.0,30.22,North,-999,0.0,-999.0,84,-99.99,,,-99.99,,2013-02-25 04:01:00,
2013-02-24 22:11:00,20.0,16.0,30.22,North,-999,0.0,-999.0,84,-99.99,,,-99.99,,2013-02-25 04:11:00,
2013-02-24 22:21:00,20.0,16.0,30.22,North,-999,0.0,-999.0,84,-99.99,,,-99.99,,2013-02-25 04:21:00,
2013-02-24 22:31:00,19.0,15.0,30.23,North,-999,0.0,-999.0,84,-99.99,,,-99.99,,2013-02-25 04:31:00,
2013-02-24 22:41:00,19.0,15.0,30.23,North,-999,0.0,-999.0,84,-99.99,,,-99.99,,2013-02-25 04:41:00,
2013-02-24 22:52:00,19.0,15.0,30.23,North,-999,0.0,-999.0,85,-99.99,,,-99.99,,2013-02-25 04:52:00,
2013-02-24 23:01:00,18.0,15.0,30.23,North,-999,0.0,-999.0,86,-99.99,,,-99.99,,2013-02-25 05:01:00,
2013-02-24 23:11:00,18.0,15.0,30.23,North,-999,0.0,-999.0,86,-99.99,,,-99.99,,2013-02-25 05:11:00,
2013-02-24 23:22:00,18.0,15.0,30.23,North,-999,0.0,-999.0,86,-99.99,,,-99.99,,2013-02-25 05:22:00,
2013-02-24 23:31:00,19.0,16.0,30.24,North,-999,0.0,-999.0,87,-99.99,,,-99.99,,2013-02-25 05:31:00,
2013-02-24 23:42:00,19.0,16.0,30.24,North,-999,0.0,-999.0,87,-99.99,,,-99.99,,2013-02-25 05:42:00,
2013-02-24 23:52:00,19.0,16.0,30.23,North,-999,0.0,-999.0,87,-99.99,,,-99.99,,2013-02-25 05:52:00,